createdAt,value
2023-01-19T00:00:00.577Z,9.87
2023-01-19T00:05:00.727Z,9.78
2023-01-19T00:10:01.269Z,10.16
2023-01-19T00:15:00.570Z,9.73
2023-01-19T00:20:00.621Z,10.17
2023-01-19T00:25:00.704Z,10.87
2023-01-19T00:30:00.715Z,11.82
2023-01-19T00:35:00.695Z,12.04
2023-01-19T00:40:00.874Z,11.61
2023-01-19T00:45:00.892Z,10.29
2023-01-19T00:50:00.530Z,9.62
2023-01-19T00:55:00.938Z,9.09
2023-01-19T01:00:00.589Z,8.76
2023-01-19T01:05:00.648Z,8.33
2023-01-19T01:10:00.747Z,8.59
2023-01-19T01:15:00.604Z,8.23
2023-01-19T01:20:00.570Z,8.11
2023-01-19T01:25:00.653Z,8.32
2023-01-19T01:30:00.586Z,8.43
2023-01-19T01:35:00.587Z,7.85
2023-01-19T01:40:01.586Z,8.13
2023-01-19T01:45:00.527Z,8.50
2023-01-19T01:50:00.573Z,7.75
2023-01-19T01:55:00.931Z,7.00
2023-01-19T02:00:00.821Z,7.75
2023-01-19T02:05:00.709Z,6.32
2023-01-19T02:10:00.696Z,6.87
2023-01-19T02:15:00.620Z,8.36
2023-01-19T02:20:00.546Z,7.51
2023-01-19T02:25:00.879Z,6.98
2023-01-19T02:30:00.585Z,7.68
2023-01-19T02:35:00.617Z,8.47
2023-01-19T02:40:00.782Z,8.07
2023-01-19T02:45:00.524Z,9.02
2023-01-19T02:50:00.680Z,8.93
2023-01-19T02:55:00.911Z,8.62
2023-01-19T03:00:00.544Z,8.57
2023-01-19T03:05:00.585Z,7.71
2023-01-19T03:10:01.050Z,7.82
2023-01-19T03:15:00.533Z,9.06
2023-01-19T03:20:00.670Z,8.29
2023-01-19T03:25:00.774Z,8.62
2023-01-19T03:30:00.623Z,8.00
2023-01-19T03:35:00.522Z,8.82
2023-01-19T03:40:00.746Z,9.10
2023-01-19T03:45:00.516Z,10.10
2023-01-19T03:50:00.634Z,10.42
2023-01-19T03:55:00.877Z,10.38
2023-01-19T04:00:00.598Z,11.16
2023-01-19T04:05:00.590Z,10.28
2023-01-19T04:10:00.934Z,12.39
2023-01-19T04:15:00.566Z,12.83
2023-01-19T04:20:00.639Z,11.76
2023-01-19T04:25:00.676Z,12.83
2023-01-19T04:30:00.626Z,12.97
2023-01-19T04:35:00.540Z,12.56
2023-01-19T04:40:01.126Z,13.70
2023-01-19T04:45:00.545Z,13.83
2023-01-19T04:50:00.920Z,12.88
2023-01-19T04:55:00.811Z,12.44
2023-01-19T05:00:00.716Z,13.95
2023-01-19T05:05:00.567Z,13.65
2023-01-19T05:10:00.767Z,13.57
2023-01-19T05:15:00.520Z,14.99
2023-01-19T05:20:00.635Z,13.90
2023-01-19T05:25:00.643Z,14.05
2023-01-19T05:30:00.595Z,14.62
2023-01-19T05:35:00.606Z,12.84
2023-01-19T05:40:01.554Z,13.10
2023-01-19T05:45:00.548Z,13.76
2023-01-19T05:50:00.691Z,14.56
2023-01-19T05:55:03.585Z,14.30
2023-01-19T06:00:00.566Z,14.99
2023-01-19T06:05:00.595Z,15.84
2023-01-19T06:10:00.884Z,19.64
2023-01-19T06:15:00.544Z,17.46
2023-01-19T06:20:00.715Z,16.15
2023-01-19T06:25:00.656Z,16.20
2023-01-19T06:30:00.575Z,16.04
2023-01-19T06:35:00.525Z,16.84
2023-01-19T06:40:00.803Z,16.06
2023-01-19T06:45:00.617Z,17.33
2023-01-19T06:50:00.609Z,17.93
2023-01-19T06:55:00.939Z,18.74
2023-01-19T07:00:00.615Z,19.39
2023-01-19T07:05:00.671Z,19.15
2023-01-19T07:10:00.731Z,19.42
2023-01-19T07:15:00.699Z,19.01
2023-01-19T07:20:00.566Z,18.64
2023-01-19T07:25:00.786Z,21.70
2023-01-19T07:30:00.515Z,22.74
2023-01-19T07:35:00.698Z,28.22
2023-01-19T07:40:00.833Z,22.48
2023-01-19T07:45:00.530Z,25.12
2023-01-19T07:50:00.637Z,24.39
2023-01-19T07:55:01.151Z,23.67
2023-01-19T08:00:00.555Z,22.94
2023-01-19T08:05:00.621Z,21.45
2023-01-19T08:10:01.812Z,22.67
2023-01-19T08:15:00.544Z,23.80
2023-01-19T08:20:00.602Z,23.69
2023-01-19T08:25:00.820Z,20.20
2023-01-19T08:30:00.567Z,19.72
2023-01-19T08:35:00.785Z,19.41
2023-01-19T08:40:01.349Z,19.87
2023-01-19T08:50:01.049Z,20.02
2023-01-19T08:55:00.613Z,21.38
2023-01-19T09:00:01.314Z,22.58
2023-01-19T09:05:00.605Z,24.10
2023-01-19T09:10:00.731Z,23.23
2023-01-19T09:15:02.459Z,20.87
2023-01-19T09:20:00.580Z,19.92
2023-01-19T09:25:00.707Z,19.67
2023-01-19T09:30:00.718Z,19.32
2023-01-19T09:35:00.603Z,19.04
2023-01-19T09:40:00.673Z,20.71
2023-01-19T09:45:00.938Z,20.63
2023-01-19T09:50:00.536Z,20.17
2023-01-19T09:55:00.742Z,20.26
2023-01-19T10:00:01.811Z,19.24
2023-01-19T10:05:00.593Z,16.63
2023-01-19T10:10:00.786Z,16.21
2023-01-19T10:15:01.066Z,15.46
2023-01-19T10:20:00.605Z,17.06
2023-01-19T10:25:00.557Z,15.46
2023-01-19T10:30:00.700Z,14.18
2023-01-19T10:35:00.583Z,14.66
2023-01-19T10:40:01.019Z,14.70
2023-01-19T10:45:02.084Z,14.17
2023-01-19T10:50:00.614Z,14.32
2023-01-19T10:55:00.747Z,12.20
2023-01-19T11:00:01.153Z,13.20
2023-01-19T11:05:00.679Z,13.62
2023-01-19T11:10:00.750Z,12.82
2023-01-19T11:15:01.054Z,14.54
2023-01-19T11:20:00.605Z,15.10
2023-01-19T11:25:00.623Z,15.17
2023-01-19T11:30:00.664Z,16.62
2023-01-19T11:35:00.606Z,16.66
2023-01-19T11:40:01.009Z,16.09
2023-01-19T11:45:01.124Z,18.41
2023-01-19T11:50:00.872Z,16.32
2023-01-19T11:55:00.841Z,16.72
2023-01-19T12:00:01.168Z,17.89
2023-01-19T12:05:01.138Z,13.56
2023-01-19T12:10:00.718Z,15.19
2023-01-19T12:15:00.706Z,15.23
2023-01-19T12:20:00.828Z,14.24
2023-01-19T12:25:00.556Z,14.75
2023-01-19T12:30:01.036Z,13.99
2023-01-19T12:35:00.636Z,13.04
2023-01-19T12:40:00.609Z,11.91
2023-01-19T12:45:00.927Z,13.06
2023-01-19T12:50:00.607Z,11.67
2023-01-19T12:55:00.857Z,12.40
2023-01-19T13:00:00.963Z,13.13
2023-01-19T13:05:01.693Z,13.24
2023-01-19T13:10:00.650Z,12.87
2023-01-19T13:15:01.111Z,13.48
2023-01-19T13:20:00.557Z,11.99
2023-01-19T13:25:00.897Z,13.33
2023-01-19T13:30:01.313Z,12.67
2023-01-19T13:35:00.860Z,13.85
2023-01-19T13:40:01.056Z,14.26
2023-01-19T13:45:01.192Z,14.93
2023-01-19T13:50:01.057Z,13.38
2023-01-19T13:55:03.006Z,11.26
2023-01-19T14:00:00.961Z,12.66
2023-01-19T14:05:00.585Z,12.28
2023-01-19T14:10:00.625Z,10.91
2023-01-19T14:15:00.813Z,10.26
2023-01-19T14:20:00.609Z,11.70
2023-01-19T14:25:00.743Z,10.16
2023-01-19T14:30:00.961Z,10.42
2023-01-19T14:35:00.590Z,9.70
2023-01-19T14:40:00.730Z,9.99
2023-01-19T14:45:00.893Z,9.60
2023-01-19T14:50:00.561Z,9.13
2023-01-19T14:55:01.715Z,8.72
2023-01-19T15:00:00.959Z,9.89
2023-01-19T15:05:00.722Z,10.52
2023-01-19T15:10:00.711Z,10.61
2023-01-19T15:15:01.696Z,11.12
2023-01-19T15:20:00.577Z,10.46
2023-01-19T15:25:00.717Z,9.05
2023-01-19T15:30:01.463Z,9.33
2023-01-19T15:35:00.651Z,10.44
2023-01-19T15:40:00.718Z,9.07
2023-01-19T15:45:00.756Z,9.86
2023-01-19T15:50:00.593Z,9.80
2023-01-19T15:55:00.978Z,11.46
2023-01-19T16:00:01.180Z,8.45
2023-01-19T16:05:00.605Z,8.97
2023-01-19T16:10:00.807Z,9.15
2023-01-19T16:15:00.789Z,8.47
2023-01-19T16:20:00.745Z,10.13
2023-01-19T16:25:00.798Z,8.83
2023-01-19T16:30:00.652Z,10.21
2023-01-19T16:35:00.613Z,11.18
2023-01-19T16:40:00.821Z,10.96
2023-01-19T16:45:00.833Z,10.26
2023-01-19T16:50:00.614Z,12.11
2023-01-19T16:55:04.350Z,11.22
2023-01-19T17:00:00.699Z,11.66
2023-01-19T17:05:00.633Z,11.60
2023-01-19T17:10:00.775Z,10.42
2023-01-19T17:15:01.322Z,11.88
2023-01-19T17:20:00.608Z,10.15
2023-01-19T17:25:00.767Z,11.18
2023-01-19T17:30:00.791Z,13.76
2023-01-19T17:35:00.656Z,14.91
2023-01-19T17:40:00.820Z,25.34
2023-01-19T17:45:00.879Z,18.10
2023-01-19T17:50:01.115Z,17.57
2023-01-19T17:55:00.603Z,20.43
2023-01-19T18:00:00.814Z,16.00
2023-01-19T18:05:00.724Z,16.96
2023-01-19T18:10:01.248Z,16.15
2023-01-19T18:15:00.729Z,16.66
2023-01-19T18:20:00.674Z,15.63
2023-01-19T18:25:00.691Z,13.35
2023-01-19T18:30:01.257Z,12.96
2023-01-19T18:35:00.580Z,11.12
2023-01-19T18:40:00.706Z,23.61
2023-01-19T18:45:04.201Z,11.73
2023-01-19T18:50:00.600Z,12.57
2023-01-19T19:00:00.833Z,10.19
2023-01-19T19:05:00.685Z,8.69
2023-01-19T19:10:00.615Z,8.93
2023-01-19T19:15:01.249Z,8.51
2023-01-19T19:20:00.632Z,9.72
2023-01-19T19:25:00.681Z,8.08
2023-01-19T19:30:01.291Z,7.87
2023-01-19T19:35:00.619Z,8.09
2023-01-19T19:40:00.775Z,8.67
2023-01-19T19:45:00.866Z,8.94
2023-01-19T19:50:00.643Z,7.87
2023-01-19T19:55:00.635Z,9.04
2023-01-19T20:00:00.752Z,8.96
2023-01-19T20:05:00.685Z,8.45
2023-01-19T20:10:02.316Z,9.79
2023-01-19T20:15:00.964Z,11.05
2023-01-19T20:20:00.649Z,10.49
2023-01-19T20:25:00.575Z,9.47
2023-01-19T20:30:01.029Z,9.45
2023-01-19T20:35:00.558Z,10.43
2023-01-19T20:40:00.663Z,8.52
2023-01-19T20:45:00.697Z,10.28
2023-01-19T20:50:00.707Z,11.71
2023-01-19T20:55:00.602Z,14.93
2023-01-19T21:00:00.901Z,17.01
2023-01-19T21:05:00.583Z,20.20
2023-01-19T21:10:00.900Z,22.48
2023-01-19T21:15:00.954Z,24.30
2023-01-19T21:20:00.577Z,21.02
2023-01-19T21:25:00.638Z,20.72
2023-01-19T21:30:01.524Z,18.27
2023-01-19T21:35:00.580Z,20.41
2023-01-19T21:40:00.649Z,20.53
2023-01-19T21:45:01.248Z,19.55
2023-01-19T21:50:00.576Z,18.31
2023-01-19T21:55:00.728Z,18.26
2023-01-19T22:00:01.786Z,18.52
2023-01-19T22:05:00.705Z,13.47
2023-01-19T22:10:00.677Z,12.09
2023-01-19T22:15:00.800Z,13.79
2023-01-19T22:20:00.583Z,13.31
2023-01-19T22:25:00.977Z,12.54
2023-01-19T22:30:00.756Z,13.43
2023-01-19T22:35:00.702Z,16.10
2023-01-19T22:40:00.814Z,14.65
2023-01-19T22:45:01.183Z,13.96
2023-01-19T22:50:00.657Z,14.42
2023-01-19T22:55:00.682Z,14.36
2023-01-19T23:00:00.857Z,17.91
2023-01-19T23:05:00.594Z,19.06
2023-01-19T23:10:00.788Z,19.02
2023-01-19T23:15:00.872Z,20.40
2023-01-19T23:20:00.625Z,19.76
2023-01-19T23:25:00.593Z,20.36
2023-01-19T23:30:00.791Z,19.22
2023-01-19T23:35:01.775Z,20.19
2023-01-19T23:40:00.612Z,19.51
2023-01-19T23:45:00.926Z,17.77
2023-01-19T23:50:00.648Z,20.59
2023-01-19T23:55:00.926Z,19.61
